< < Back
Terminal Aerodrome Forecast


Current Version              Previous Versions:   1  2  3  4  5  6  7  8  9  

Terminal Aerodrome Forecast

503
FTUS42 KCAE 311800 AAA
TAFAGS
TAF AMD
KAGS 311828Z 3118/0118 VRB04KT P6SM SCT200
     FM312300 VRB03KT P6SM BKN150
     FM011400 19008KT P6SM SCT025 BKN150=



Latest METAR

738
SAUS70 KWBC 010000 RRN
MTRAGS
METAR KAGS 312353Z 20003KT 10SM CLR 09/M07 A3033 RMK AO2 SLP272
T00891072 10139 20083 53005


USA.gov is the U.S. government's official web portal to all federal, state and local government web resources and services.